sensor_id;sensor_type;location;lat;lon;timestamp;P1;durP1;ratioP1;P2;durP2;ratioP2
38899;SDS011;24660;43.238;26.576;2022-08-19T00:00:23;6.22;;;5.82;;
38899;SDS011;24660;43.238;26.576;2022-08-19T00:02:49;6.97;;;6.57;;
38899;SDS011;24660;43.238;26.576;2022-08-19T00:05:14;6.40;;;6.00;;
38899;SDS011;24660;43.238;26.576;2022-08-19T00:07:40;6.25;;;5.85;;
38899;SDS011;24660;43.238;26.576;2022-08-19T00:10:08;6.20;;;5.80;;
38899;SDS011;24660;43.238;26.576;2022-08-19T00:12:35;6.40;;;6.00;;
38899;SDS011;24660;43.238;26.576;2022-08-19T00:15:03;6.57;;;6.18;;
38899;SDS011;24660;43.238;26.576;2022-08-19T00:17:29;6.57;;;6.18;;
38899;SDS011;24660;43.238;26.576;2022-08-19T00:19:55;6.60;;;6.20;;
38899;SDS011;24660;43.238;26.576;2022-08-19T00:22:20;5.90;;;5.50;;
38899;SDS011;24660;43.238;26.576;2022-08-19T00:24:46;6.00;;;5.60;;
38899;SDS011;24660;43.238;26.576;2022-08-19T00:27:12;6.30;;;5.90;;
38899;SDS011;24660;43.238;26.576;2022-08-19T00:29:37;6.10;;;5.70;;
38899;SDS011;24660;43.238;26.576;2022-08-19T00:32:03;5.55;;;5.25;;
38899;SDS011;24660;43.238;26.576;2022-08-19T00:34:29;6.13;;;5.72;;
38899;SDS011;24660;43.238;26.576;2022-08-19T00:36:55;5.65;;;5.35;;
38899;SDS011;24660;43.238;26.576;2022-08-19T00:39:22;6.20;;;5.80;;
38899;SDS011;24660;43.238;26.576;2022-08-19T00:41:48;5.25;;;4.95;;
38899;SDS011;24660;43.238;26.576;2022-08-19T00:44:17;5.50;;;5.20;;
38899;SDS011;24660;43.238;26.576;2022-08-19T00:46:46;5.60;;;5.30;;
38899;SDS011;24660;43.238;26.576;2022-08-19T00:49:15;5.15;;;4.85;;
38899;SDS011;24660;43.238;26.576;2022-08-19T00:51:44;5.50;;;5.20;;
38899;SDS011;24660;43.238;26.576;2022-08-19T00:54:12;5.50;;;5.20;;
38899;SDS011;24660;43.238;26.576;2022-08-19T00:56:39;5.35;;;5.05;;
38899;SDS011;24660;43.238;26.576;2022-08-19T00:59:06;5.15;;;4.85;;
38899;SDS011;24660;43.238;26.576;2022-08-19T01:01:36;5.18;;;4.88;;
38899;SDS011;24660;43.238;26.576;2022-08-19T01:04:04;5.30;;;5.00;;
38899;SDS011;24660;43.238;26.576;2022-08-19T01:06:30;5.40;;;5.10;;
38899;SDS011;24660;43.238;26.576;2022-08-19T01:08:57;5.28;;;4.97;;
38899;SDS011;24660;43.238;26.576;2022-08-19T01:11:24;5.10;;;4.80;;
38899;SDS011;24660;43.238;26.576;2022-08-19T01:13:50;4.97;;;4.68;;
38899;SDS011;24660;43.238;26.576;2022-08-19T01:16:19;4.45;;;4.15;;
38899;SDS011;24660;43.238;26.576;2022-08-19T01:18:47;5.32;;;5.03;;
38899;SDS011;24660;43.238;26.576;2022-08-19T01:21:18;5.50;;;5.20;;
38899;SDS011;24660;43.238;26.576;2022-08-19T01:23:47;4.80;;;4.50;;
38899;SDS011;24660;43.238;26.576;2022-08-19T01:26:16;4.90;;;4.60;;
38899;SDS011;24660;43.238;26.576;2022-08-19T01:28:44;4.70;;;4.40;;
38899;SDS011;24660;43.238;26.576;2022-08-19T01:31:14;5.20;;;4.90;;
38899;SDS011;24660;43.238;26.576;2022-08-19T01:33:42;4.90;;;4.60;;
38899;SDS011;24660;43.238;26.576;2022-08-19T01:36:09;4.50;;;4.20;;
38899;SDS011;24660;43.238;26.576;2022-08-19T01:38:38;4.85;;;4.55;;
38899;SDS011;24660;43.238;26.576;2022-08-19T01:41:06;4.70;;;4.40;;
38899;SDS011;24660;43.238;26.576;2022-08-19T01:43:32;4.50;;;4.20;;
38899;SDS011;24660;43.238;26.576;2022-08-19T01:45:58;4.20;;;4.00;;
38899;SDS011;24660;43.238;26.576;2022-08-19T01:48:24;4.63;;;4.32;;
38899;SDS011;24660;43.238;26.576;2022-08-19T01:50:49;4.47;;;4.18;;
38899;SDS011;24660;43.238;26.576;2022-08-19T01:53:15;4.15;;;3.95;;
38899;SDS011;24660;43.238;26.576;2022-08-19T01:55:41;4.15;;;3.95;;
38899;SDS011;24660;43.238;26.576;2022-08-19T01:58:13;4.30;;;4.10;;
38899;SDS011;24660;43.238;26.576;2022-08-19T02:00:41;4.10;;;3.90;;
38899;SDS011;24660;43.238;26.576;2022-08-19T02:03:08;4.20;;;4.00;;
38899;SDS011;24660;43.238;26.576;2022-08-19T02:05:35;4.60;;;4.30;;
38899;SDS011;24660;43.238;26.576;2022-08-19T02:08:00;4.63;;;4.32;;
38899;SDS011;24660;43.238;26.576;2022-08-19T02:10:26;4.20;;;4.00;;
38899;SDS011;24660;43.238;26.576;2022-08-19T02:12:51;3.92;;;3.72;;
38899;SDS011;24660;43.238;26.576;2022-08-19T02:15:17;4.03;;;3.83;;
38899;SDS011;24660;43.238;26.576;2022-08-19T02:17:44;4.00;;;3.80;;
38899;SDS011;24660;43.238;26.576;2022-08-19T02:20:11;4.20;;;4.00;;
38899;SDS011;24660;43.238;26.576;2022-08-19T02:22:38;4.30;;;4.10;;
38899;SDS011;24660;43.238;26.576;2022-08-19T02:25:06;4.20;;;4.00;;
38899;SDS011;24660;43.238;26.576;2022-08-19T02:27:33;4.10;;;3.90;;
38899;SDS011;24660;43.238;26.576;2022-08-19T02:29:59;3.92;;;3.72;;
38899;SDS011;24660;43.238;26.576;2022-08-19T02:32:27;4.00;;;3.80;;
38899;SDS011;24660;43.238;26.576;2022-08-19T02:34:55;4.15;;;3.95;;
38899;SDS011;24660;43.238;26.576;2022-08-19T02:37:20;3.92;;;3.72;;
38899;SDS011;24660;43.238;26.576;2022-08-19T02:40:01;4.20;;;4.00;;
38899;SDS011;24660;43.238;26.576;2022-08-19T02:42:27;4.30;;;4.10;;
38899;SDS011;24660;43.238;26.576;2022-08-19T02:44:55;4.07;;;3.88;;
38899;SDS011;24660;43.238;26.576;2022-08-19T02:47:20;4.07;;;3.88;;
38899;SDS011;24660;43.238;26.576;2022-08-19T02:49:46;4.15;;;3.95;;
38899;SDS011;24660;43.238;26.576;2022-08-19T02:52:15;4.30;;;4.10;;
38899;SDS011;24660;43.238;26.576;2022-08-19T02:54:41;4.13;;;3.92;;
38899;SDS011;24660;43.238;26.576;2022-08-19T02:57:07;4.32;;;4.10;;
38899;SDS011;24660;43.238;26.576;2022-08-19T02:59:32;4.60;;;4.30;;
38899;SDS011;24660;43.238;26.576;2022-08-19T03:02:01;4.20;;;4.00;;
38899;SDS011;24660;43.238;26.576;2022-08-19T03:04:26;4.15;;;3.95;;
38899;SDS011;24660;43.238;26.576;2022-08-19T03:06:52;3.92;;;3.72;;
38899;SDS011;24660;43.238;26.576;2022-08-19T03:09:18;3.70;;;3.50;;
38899;SDS011;24660;43.238;26.576;2022-08-19T03:11:45;3.90;;;3.70;;
38899;SDS011;24660;43.238;26.576;2022-08-19T03:14:10;3.92;;;3.72;;
38899;SDS011;24660;43.238;26.576;2022-08-19T03:16:42;3.90;;;3.70;;
38899;SDS011;24660;43.238;26.576;2022-08-19T03:19:12;3.80;;;3.60;;
38899;SDS011;24660;43.238;26.576;2022-08-19T03:21:38;3.85;;;3.65;;
38899;SDS011;24660;43.238;26.576;2022-08-19T03:24:06;3.70;;;3.50;;
38899;SDS011;24660;43.238;26.576;2022-08-19T03:26:33;3.58;;;3.38;;
38899;SDS011;24660;43.238;26.576;2022-08-19T03:29:03;3.53;;;3.33;;
38899;SDS011;24660;43.238;26.576;2022-08-19T03:31:30;3.60;;;3.40;;
38899;SDS011;24660;43.238;26.576;2022-08-19T03:33:56;3.42;;;3.22;;
38899;SDS011;24660;43.238;26.576;2022-08-19T03:36:23;3.33;;;3.13;;
38899;SDS011;24660;43.238;26.576;2022-08-19T03:38:52;3.45;;;3.25;;
38899;SDS011;24660;43.238;26.576;2022-08-19T03:41:21;3.03;;;2.83;;
38899;SDS011;24660;43.238;26.576;2022-08-19T03:43:49;3.30;;;3.10;;
38899;SDS011;24660;43.238;26.576;2022-08-19T03:46:16;3.40;;;3.20;;
38899;SDS011;24660;43.238;26.576;2022-08-19T03:48:46;3.20;;;3.00;;
38899;SDS011;24660;43.238;26.576;2022-08-19T03:51:21;3.28;;;3.08;;
38899;SDS011;24660;43.238;26.576;2022-08-19T03:53:49;3.38;;;3.17;;
38899;SDS011;24660;43.238;26.576;2022-08-19T03:56:15;3.05;;;2.85;;
38899;SDS011;24660;43.238;26.576;2022-08-19T03:58:41;3.40;;;3.20;;
38899;SDS011;24660;43.238;26.576;2022-08-19T04:01:08;3.50;;;3.30;;
38899;SDS011;24660;43.238;26.576;2022-08-19T04:03:35;3.95;;;3.75;;
38899;SDS011;24660;43.238;26.576;2022-08-19T04:08:44;4.07;;;3.88;;
38899;SDS011;24660;43.238;26.576;2022-08-19T04:11:14;3.95;;;3.75;;
38899;SDS011;24660;43.238;26.576;2022-08-19T04:13:41;3.80;;;3.60;;
38899;SDS011;24660;43.238;26.576;2022-08-19T04:16:09;3.63;;;3.42;;
38899;SDS011;24660;43.238;26.576;2022-08-19T04:18:35;3.90;;;3.70;;
38899;SDS011;24660;43.238;26.576;2022-08-19T04:21:02;4.38;;;4.10;;
38899;SDS011;24660;43.238;26.576;2022-08-19T04:23:28;4.53;;;4.22;;
38899;SDS011;24660;43.238;26.576;2022-08-19T04:25:54;4.45;;;4.15;;
38899;SDS011;24660;43.238;26.576;2022-08-19T04:28:20;4.70;;;4.40;;
38899;SDS011;24660;43.238;26.576;2022-08-19T04:30:48;5.05;;;4.75;;
38899;SDS011;24660;43.238;26.576;2022-08-19T04:33:16;5.10;;;4.80;;
38899;SDS011;24660;43.238;26.576;2022-08-19T04:35:45;5.28;;;4.97;;
38899;SDS011;24660;43.238;26.576;2022-08-19T04:38:12;5.43;;;5.13;;
38899;SDS011;24660;43.238;26.576;2022-08-19T04:40:41;5.47;;;5.18;;
38899;SDS011;24660;43.238;26.576;2022-08-19T04:43:23;5.65;;;5.35;;
38899;SDS011;24660;43.238;26.576;2022-08-19T04:45:49;5.40;;;5.10;;
38899;SDS011;24660;43.238;26.576;2022-08-19T04:48:16;5.88;;;5.47;;
38899;SDS011;24660;43.238;26.576;2022-08-19T04:50:43;5.13;;;4.82;;
38899;SDS011;24660;43.238;26.576;2022-08-19T04:53:09;5.50;;;5.20;;
38899;SDS011;24660;43.238;26.576;2022-08-19T04:55:37;5.95;;;5.55;;
38899;SDS011;24660;43.238;26.576;2022-08-19T04:58:03;6.80;;;6.40;;
38899;SDS011;24660;43.238;26.576;2022-08-19T05:00:29;7.50;;;7.00;;
38899;SDS011;24660;43.238;26.576;2022-08-19T05:02:55;7.25;;;6.80;;
38899;SDS011;24660;43.238;26.576;2022-08-19T05:05:20;7.70;;;7.20;;
38899;SDS011;24660;43.238;26.576;2022-08-19T05:07:46;7.90;;;7.40;;
38899;SDS011;24660;43.238;26.576;2022-08-19T05:10:12;8.02;;;7.53;;
38899;SDS011;24660;43.238;26.576;2022-08-19T05:12:37;7.80;;;7.30;;
38899;SDS011;24660;43.238;26.576;2022-08-19T05:15:03;7.88;;;7.38;;
38899;SDS011;24660;43.238;26.576;2022-08-19T05:17:30;8.35;;;7.85;;
38899;SDS011;24660;43.238;26.576;2022-08-19T05:19:56;8.77;;;8.20;;
38899;SDS011;24660;43.238;26.576;2022-08-19T05:22:37;9.38;;;8.77;;
38899;SDS011;24660;43.238;26.576;2022-08-19T05:25:03;8.95;;;8.35;;
38899;SDS011;24660;43.238;26.576;2022-08-19T05:27:31;9.60;;;9.00;;
38899;SDS011;24660;43.238;26.576;2022-08-19T05:29:57;10.00;;;9.30;;
38899;SDS011;24660;43.238;26.576;2022-08-19T05:32:22;10.20;;;9.50;;
38899;SDS011;24660;43.238;26.576;2022-08-19T05:34:48;9.57;;;8.98;;
38899;SDS011;24660;43.238;26.576;2022-08-19T05:37:14;9.60;;;9.00;;
38899;SDS011;24660;43.238;26.576;2022-08-19T05:39:39;9.80;;;9.20;;
38899;SDS011;24660;43.238;26.576;2022-08-19T05:42:07;10.63;;;9.93;;
38899;SDS011;24660;43.238;26.576;2022-08-19T05:44:35;11.07;;;10.38;;
38899;SDS011;24660;43.238;26.576;2022-08-19T05:47:05;12.35;;;11.45;;
38899;SDS011;24660;43.238;26.576;2022-08-19T05:49:33;13.70;;;12.70;;
38899;SDS011;24660;43.238;26.576;2022-08-19T05:52:06;14.95;;;13.85;;
38899;SDS011;24660;43.238;26.576;2022-08-19T05:54:34;14.90;;;13.80;;
38899;SDS011;24660;43.238;26.576;2022-08-19T05:57:00;15.65;;;14.45;;
38899;SDS011;24660;43.238;26.576;2022-08-19T05:59:27;15.00;;;13.90;;
38899;SDS011;24660;43.238;26.576;2022-08-19T06:01:52;15.20;;;14.10;;
38899;SDS011;24660;43.238;26.576;2022-08-19T06:04:20;15.18;;;14.07;;
38899;SDS011;24660;43.238;26.576;2022-08-19T06:06:47;16.08;;;14.88;;
38899;SDS011;24660;43.238;26.576;2022-08-19T06:09:16;15.93;;;14.73;;
38899;SDS011;24660;43.238;26.576;2022-08-19T06:14:11;16.17;;;14.98;;
38899;SDS011;24660;43.238;26.576;2022-08-19T06:16:40;16.55;;;15.25;;
38899;SDS011;24660;43.238;26.576;2022-08-19T06:19:08;16.90;;;15.60;;
38899;SDS011;24660;43.238;26.576;2022-08-19T06:21:37;16.73;;;15.52;;
38899;SDS011;24660;43.238;26.576;2022-08-19T06:24:05;16.90;;;15.60;;
38899;SDS011;24660;43.238;26.576;2022-08-19T06:26:33;17.17;;;15.88;;
38899;SDS011;24660;43.238;26.576;2022-08-19T06:29:01;17.08;;;15.77;;
38899;SDS011;24660;43.238;26.576;2022-08-19T06:31:28;17.10;;;15.80;;
38899;SDS011;24660;43.238;26.576;2022-08-19T06:33:54;17.17;;;15.88;;
38899;SDS011;24660;43.238;26.576;2022-08-19T06:36:21;17.63;;;16.23;;
38899;SDS011;24660;43.238;26.576;2022-08-19T06:38:52;16.92;;;15.63;;
38899;SDS011;24660;43.238;26.576;2022-08-19T06:41:19;16.70;;;15.45;;
38899;SDS011;24660;43.238;26.576;2022-08-19T06:43:44;17.00;;;15.70;;
38899;SDS011;24660;43.238;26.576;2022-08-19T06:46:11;17.13;;;15.82;;
38899;SDS011;24660;43.238;26.576;2022-08-19T06:48:38;17.65;;;16.25;;
38899;SDS011;24660;43.238;26.576;2022-08-19T06:51:04;17.98;;;16.58;;
38899;SDS011;24660;43.238;26.576;2022-08-19T06:53:31;17.90;;;16.50;;
38899;SDS011;24660;43.238;26.576;2022-08-19T06:55:57;17.75;;;16.35;;
38899;SDS011;24660;43.238;26.576;2022-08-19T06:58:26;17.70;;;16.30;;
38899;SDS011;24660;43.238;26.576;2022-08-19T07:00:58;18.05;;;16.65;;
38899;SDS011;24660;43.238;26.576;2022-08-19T07:03:30;17.65;;;16.25;;
38899;SDS011;24660;43.238;26.576;2022-08-19T07:08:42;17.85;;;16.45;;
38899;SDS011;24660;43.238;26.576;2022-08-19T07:11:10;18.35;;;16.85;;
38899;SDS011;24660;43.238;26.576;2022-08-19T07:13:38;17.95;;;16.55;;
38899;SDS011;24660;43.238;26.576;2022-08-19T07:16:05;18.27;;;16.77;;
38899;SDS011;24660;43.238;26.576;2022-08-19T07:18:32;18.48;;;16.98;;
38899;SDS011;24660;43.238;26.576;2022-08-19T07:21:07;18.52;;;17.02;;
38899;SDS011;24660;43.238;26.576;2022-08-19T07:26:05;18.67;;;17.17;;
38899;SDS011;24660;43.238;26.576;2022-08-19T07:28:32;18.75;;;17.25;;
38899;SDS011;24660;43.238;26.576;2022-08-19T07:30:57;18.40;;;16.92;;
38899;SDS011;24660;43.238;26.576;2022-08-19T07:33:23;18.23;;;16.73;;
38899;SDS011;24660;43.238;26.576;2022-08-19T07:35:48;18.55;;;17.05;;
38899;SDS011;24660;43.238;26.576;2022-08-19T07:38:15;18.65;;;17.15;;
38899;SDS011;24660;43.238;26.576;2022-08-19T07:40:41;18.45;;;16.95;;
38899;SDS011;24660;43.238;26.576;2022-08-19T07:43:08;18.75;;;17.25;;
38899;SDS011;24660;43.238;26.576;2022-08-19T07:45:34;18.55;;;17.05;;
38899;SDS011;24660;43.238;26.576;2022-08-19T07:47:59;18.83;;;17.33;;
38899;SDS011;24660;43.238;26.576;2022-08-19T07:50:25;18.77;;;17.27;;
38899;SDS011;24660;43.238;26.576;2022-08-19T07:52:51;18.75;;;17.25;;
38899;SDS011;24660;43.238;26.576;2022-08-19T07:55:19;17.98;;;16.58;;
38899;SDS011;24660;43.238;26.576;2022-08-19T07:57:46;18.75;;;17.25;;
38899;SDS011;24660;43.238;26.576;2022-08-19T08:00:12;18.42;;;17.00;;
38899;SDS011;24660;43.238;26.576;2022-08-19T08:02:38;18.00;;;16.60;;
38899;SDS011;24660;43.238;26.576;2022-08-19T08:05:04;18.58;;;17.08;;
38899;SDS011;24660;43.238;26.576;2022-08-19T08:07:45;18.92;;;17.42;;
38899;SDS011;24660;43.238;26.576;2022-08-19T08:10:25;18.42;;;16.98;;
38899;SDS011;24660;43.238;26.576;2022-08-19T08:12:51;18.00;;;16.60;;
38899;SDS011;24660;43.238;26.576;2022-08-19T08:15:17;18.63;;;17.13;;
38899;SDS011;24660;43.238;26.576;2022-08-19T08:17:43;18.77;;;17.27;;
38899;SDS011;24660;43.238;26.576;2022-08-19T08:20:10;18.65;;;17.15;;
38899;SDS011;24660;43.238;26.576;2022-08-19T08:22:36;18.75;;;17.25;;
38899;SDS011;24660;43.238;26.576;2022-08-19T08:25:18;18.52;;;17.13;;
38899;SDS011;24660;43.238;26.576;2022-08-19T08:27:46;18.48;;;17.02;;
38899;SDS011;24660;43.238;26.576;2022-08-19T08:30:14;18.25;;;16.85;;
38899;SDS011;24660;43.238;26.576;2022-08-19T08:32:41;18.75;;;17.25;;
38899;SDS011;24660;43.238;26.576;2022-08-19T08:35:08;18.85;;;17.35;;
38899;SDS011;24660;43.238;26.576;2022-08-19T08:37:37;19.20;;;17.70;;
38899;SDS011;24660;43.238;26.576;2022-08-19T08:40:04;19.10;;;17.60;;
38899;SDS011;24660;43.238;26.576;2022-08-19T08:42:36;19.05;;;17.55;;
38899;SDS011;24660;43.238;26.576;2022-08-19T08:45:12;19.05;;;17.55;;
38899;SDS011;24660;43.238;26.576;2022-08-19T08:47:41;19.20;;;17.70;;
38899;SDS011;24660;43.238;26.576;2022-08-19T08:50:16;19.42;;;17.92;;
38899;SDS011;24660;43.238;26.576;2022-08-19T08:52:46;19.63;;;18.08;;
38899;SDS011;24660;43.238;26.576;2022-08-19T08:55:15;19.73;;;18.23;;
38899;SDS011;24660;43.238;26.576;2022-08-19T08:57:53;18.98;;;17.48;;
38899;SDS011;24660;43.238;26.576;2022-08-19T09:03:16;19.70;;;18.20;;
38899;SDS011;24660;43.238;26.576;2022-08-19T09:08:28;18.67;;;17.25;;
38899;SDS011;24660;43.238;26.576;2022-08-19T09:10:55;19.10;;;17.60;;
38899;SDS011;24660;43.238;26.576;2022-08-19T09:13:27;19.38;;;17.88;;
38899;SDS011;24660;43.238;26.576;2022-08-19T09:18:42;19.70;;;18.20;;
38899;SDS011;24660;43.238;26.576;2022-08-19T09:21:12;19.23;;;17.73;;
38899;SDS011;24660;43.238;26.576;2022-08-19T09:23:39;19.08;;;17.60;;
38899;SDS011;24660;43.238;26.576;2022-08-19T09:26:13;19.70;;;18.20;;
38899;SDS011;24660;43.238;26.576;2022-08-19T09:28:41;19.55;;;18.05;;
38899;SDS011;24660;43.238;26.576;2022-08-19T09:31:09;19.50;;;18.00;;
38899;SDS011;24660;43.238;26.576;2022-08-19T09:33:36;18.98;;;17.55;;
38899;SDS011;24660;43.238;26.576;2022-08-19T09:36:03;18.70;;;17.30;;
38899;SDS011;24660;43.238;26.576;2022-08-19T09:38:32;19.05;;;17.65;;
38899;SDS011;24660;43.238;26.576;2022-08-19T09:41:01;19.30;;;17.80;;
38899;SDS011;24660;43.238;26.576;2022-08-19T09:43:29;19.20;;;17.70;;
38899;SDS011;24660;43.238;26.576;2022-08-19T09:45:56;18.20;;;16.80;;
38899;SDS011;24660;43.238;26.576;2022-08-19T09:48:21;19.70;;;18.15;;
38899;SDS011;24660;43.238;26.576;2022-08-19T09:50:47;19.40;;;17.90;;
38899;SDS011;24660;43.238;26.576;2022-08-19T09:53:13;19.20;;;17.70;;
38899;SDS011;24660;43.238;26.576;2022-08-19T09:55:41;18.52;;;17.13;;
38899;SDS011;24660;43.238;26.576;2022-08-19T09:58:08;19.05;;;17.55;;
38899;SDS011;24660;43.238;26.576;2022-08-19T10:00:33;18.85;;;17.42;;
38899;SDS011;24660;43.238;26.576;2022-08-19T10:03:01;18.98;;;17.48;;
38899;SDS011;24660;43.238;26.576;2022-08-19T10:05:27;18.73;;;17.30;;
38899;SDS011;24660;43.238;26.576;2022-08-19T10:08:08;19.33;;;17.83;;
38899;SDS011;24660;43.238;26.576;2022-08-19T10:10:35;18.77;;;17.38;;
38899;SDS011;24660;43.238;26.576;2022-08-19T10:13:00;19.05;;;17.55;;
38899;SDS011;24660;43.238;26.576;2022-08-19T10:15:26;18.42;;;17.02;;
38899;SDS011;24660;43.238;26.576;2022-08-19T10:17:51;18.63;;;17.23;;
38899;SDS011;24660;43.238;26.576;2022-08-19T10:20:17;18.65;;;17.25;;
38899;SDS011;24660;43.238;26.576;2022-08-19T10:22:42;18.25;;;16.85;;
38899;SDS011;24660;43.238;26.576;2022-08-19T10:25:09;18.90;;;17.40;;
38899;SDS011;24660;43.238;26.576;2022-08-19T12:51:42;18.92;;;17.52;;
38899;SDS011;24660;43.238;26.576;2022-08-19T12:54:08;18.40;;;17.10;;
38899;SDS011;24660;43.238;26.576;2022-08-19T12:56:33;18.27;;;16.98;;
38899;SDS011;24660;43.238;26.576;2022-08-19T12:59:03;19.45;;;17.95;;
38899;SDS011;24660;43.238;26.576;2022-08-19T13:01:29;19.13;;;17.73;;
38899;SDS011;24660;43.238;26.576;2022-08-19T13:03:58;19.73;;;18.23;;
38899;SDS011;24660;43.238;26.576;2022-08-19T13:06:24;19.30;;;17.80;;
38899;SDS011;24660;43.238;26.576;2022-08-19T13:08:50;19.10;;;17.70;;
38899;SDS011;24660;43.238;26.576;2022-08-19T13:11:17;18.77;;;17.38;;
38899;SDS011;24660;43.238;26.576;2022-08-19T13:13:46;19.00;;;17.60;;
38899;SDS011;24660;43.238;26.576;2022-08-19T13:16:15;19.17;;;17.67;;
38899;SDS011;24660;43.238;26.576;2022-08-19T13:18:41;18.88;;;17.48;;
38899;SDS011;24660;43.238;26.576;2022-08-19T13:21:09;18.88;;;17.48;;
38899;SDS011;24660;43.238;26.576;2022-08-19T13:23:38;18.75;;;17.35;;
38899;SDS011;24660;43.238;26.576;2022-08-19T13:26:06;18.05;;;16.75;;
38899;SDS011;24660;43.238;26.576;2022-08-19T13:28:33;18.90;;;17.50;;
38899;SDS011;24660;43.238;26.576;2022-08-19T13:31:16;18.13;;;16.83;;
38899;SDS011;24660;43.238;26.576;2022-08-19T13:33:57;18.60;;;17.23;;
38899;SDS011;24660;43.238;26.576;2022-08-19T13:36:23;18.35;;;17.05;;
38899;SDS011;24660;43.238;26.576;2022-08-19T13:38:48;18.52;;;17.13;;
38899;SDS011;24660;43.238;26.576;2022-08-19T13:41:13;18.88;;;17.48;;
38899;SDS011;24660;43.238;26.576;2022-08-19T13:43:39;18.23;;;16.92;;
38899;SDS011;24660;43.238;26.576;2022-08-19T13:46:08;18.35;;;17.00;;
38899;SDS011;24660;43.238;26.576;2022-08-19T13:48:35;18.15;;;16.85;;
38899;SDS011;24660;43.238;26.576;2022-08-19T13:51:00;17.98;;;16.67;;
38899;SDS011;24660;43.238;26.576;2022-08-19T13:53:25;17.20;;;16.00;;
38899;SDS011;24660;43.238;26.576;2022-08-19T13:55:51;17.58;;;16.27;;
38899;SDS011;24660;43.238;26.576;2022-08-19T13:58:18;17.67;;;16.37;;
38899;SDS011;24660;43.238;26.576;2022-08-19T14:00:46;17.50;;;16.25;;
38899;SDS011;24660;43.238;26.576;2022-08-19T14:03:13;17.20;;;16.00;;
38899;SDS011;24660;43.238;26.576;2022-08-19T14:05:39;17.35;;;16.15;;
38899;SDS011;24660;43.238;26.576;2022-08-19T14:08:04;17.25;;;16.05;;
38899;SDS011;24660;43.238;26.576;2022-08-19T14:10:30;16.83;;;15.63;;
38899;SDS011;24660;43.238;26.576;2022-08-19T14:12:57;16.77;;;15.57;;
38899;SDS011;24660;43.238;26.576;2022-08-19T14:15:25;17.08;;;15.88;;
38899;SDS011;24660;43.238;26.576;2022-08-19T14:17:52;17.05;;;15.85;;
38899;SDS011;24660;43.238;26.576;2022-08-19T14:20:18;17.00;;;15.80;;
38899;SDS011;24660;43.238;26.576;2022-08-19T14:22:44;17.27;;;16.08;;
38899;SDS011;24660;43.238;26.576;2022-08-19T14:25:14;17.25;;;16.05;;
38899;SDS011;24660;43.238;26.576;2022-08-19T14:27:41;17.00;;;15.80;;
38899;SDS011;24660;43.238;26.576;2022-08-19T14:30:08;17.45;;;16.15;;
38899;SDS011;24660;43.238;26.576;2022-08-19T14:32:38;17.02;;;15.82;;
38899;SDS011;24660;43.238;26.576;2022-08-19T14:35:04;16.92;;;15.73;;
38899;SDS011;24660;43.238;26.576;2022-08-19T14:37:32;16.98;;;15.77;;
38899;SDS011;24660;43.238;26.576;2022-08-19T14:39:58;16.75;;;15.55;;
38899;SDS011;24660;43.238;26.576;2022-08-19T14:42:24;16.80;;;15.60;;
38899;SDS011;24660;43.238;26.576;2022-08-19T14:44:49;16.65;;;15.45;;
38899;SDS011;24660;43.238;26.576;2022-08-19T14:47:15;17.20;;;16.00;;
38899;SDS011;24660;43.238;26.576;2022-08-19T14:49:41;16.42;;;15.30;;
38899;SDS011;24660;43.238;26.576;2022-08-19T14:52:06;16.58;;;15.38;;
38899;SDS011;24660;43.238;26.576;2022-08-19T14:54:32;17.25;;;16.05;;
38899;SDS011;24660;43.238;26.576;2022-08-19T14:56:58;16.45;;;15.35;;
38899;SDS011;24660;43.238;26.576;2022-08-19T14:59:23;16.70;;;15.50;;
38899;SDS011;24660;43.238;26.576;2022-08-19T15:01:49;17.02;;;15.82;;
38899;SDS011;24660;43.238;26.576;2022-08-19T15:04:15;17.05;;;15.85;;
38899;SDS011;24660;43.238;26.576;2022-08-19T15:06:40;17.15;;;15.95;;
38899;SDS011;24660;43.238;26.576;2022-08-19T15:09:07;16.88;;;15.68;;
38899;SDS011;24660;43.238;26.576;2022-08-19T15:11:33;17.38;;;16.17;;
38899;SDS011;24660;43.238;26.576;2022-08-19T15:13:59;16.98;;;15.77;;
38899;SDS011;24660;43.238;26.576;2022-08-19T15:16:26;17.20;;;16.00;;
38899;SDS011;24660;43.238;26.576;2022-08-19T15:18:53;17.65;;;16.40;;
38899;SDS011;24660;43.238;26.576;2022-08-19T15:21:21;17.38;;;16.17;;
38899;SDS011;24660;43.238;26.576;2022-08-19T15:23:48;17.60;;;16.30;;
38899;SDS011;24660;43.238;26.576;2022-08-19T15:26:15;17.98;;;16.67;;
38899;SDS011;24660;43.238;26.576;2022-08-19T15:28:42;17.75;;;16.45;;
38899;SDS011;24660;43.238;26.576;2022-08-19T15:31:07;17.05;;;15.85;;
38899;SDS011;24660;43.238;26.576;2022-08-19T15:33:34;17.08;;;15.88;;
38899;SDS011;24660;43.238;26.576;2022-08-19T15:36:04;17.02;;;15.82;;
38899;SDS011;24660;43.238;26.576;2022-08-19T15:38:30;17.45;;;16.25;;
38899;SDS011;24660;43.238;26.576;2022-08-19T15:40:58;17.67;;;16.38;;
38899;SDS011;24660;43.238;26.576;2022-08-19T15:43:45;17.48;;;16.25;;
38899;SDS011;24660;43.238;26.576;2022-08-19T15:46:15;18.15;;;16.85;;
38899;SDS011;24660;43.238;26.576;2022-08-19T15:48:43;17.95;;;16.65;;
38899;SDS011;24660;43.238;26.576;2022-08-19T15:51:09;17.85;;;16.55;;
38899;SDS011;24660;43.238;26.576;2022-08-19T15:53:35;17.13;;;15.93;;
38899;SDS011;24660;43.238;26.576;2022-08-19T15:56:00;16.25;;;15.15;;
38899;SDS011;24660;43.238;26.576;2022-08-19T15:58:26;17.25;;;16.02;;
38899;SDS011;24660;43.238;26.576;2022-08-19T16:01:06;17.25;;;16.05;;
38899;SDS011;24660;43.238;26.576;2022-08-19T16:03:48;17.80;;;16.50;;
38899;SDS011;24660;43.238;26.576;2022-08-19T16:06:29;17.20;;;16.00;;
38899;SDS011;24660;43.238;26.576;2022-08-19T16:08:56;17.25;;;16.05;;
38899;SDS011;24660;43.238;26.576;2022-08-19T16:11:24;17.95;;;16.65;;
38899;SDS011;24660;43.238;26.576;2022-08-19T16:13:52;17.03;;;15.83;;
38899;SDS011;24660;43.238;26.576;2022-08-19T16:16:20;17.77;;;16.47;;
38899;SDS011;24660;43.238;26.576;2022-08-19T16:18:46;17.27;;;16.07;;
38899;SDS011;24660;43.238;26.576;2022-08-19T16:21:13;16.95;;;15.75;;
38899;SDS011;24660;43.238;26.576;2022-08-19T16:23:41;17.85;;;16.55;;
38899;SDS011;24660;43.238;26.576;2022-08-19T16:26:11;17.65;;;16.35;;
38899;SDS011;24660;43.238;26.576;2022-08-19T16:28:38;17.27;;;16.00;;
38899;SDS011;24660;43.238;26.576;2022-08-19T16:31:04;17.95;;;16.65;;
38899;SDS011;24660;43.238;26.576;2022-08-19T16:33:30;17.73;;;16.42;;
38899;SDS011;24660;43.238;26.576;2022-08-19T16:35:56;17.92;;;16.63;;
38899;SDS011;24660;43.238;26.576;2022-08-19T16:38:23;18.05;;;16.75;;
38899;SDS011;24660;43.238;26.576;2022-08-19T16:40:49;18.23;;;16.92;;
38899;SDS011;24660;43.238;26.576;2022-08-19T16:45:47;18.20;;;16.85;;
38899;SDS011;24660;43.238;26.576;2022-08-19T16:48:14;18.60;;;17.20;;
38899;SDS011;24660;43.238;26.576;2022-08-19T16:50:40;18.45;;;17.05;;
38899;SDS011;24660;43.238;26.576;2022-08-19T16:53:06;18.65;;;17.25;;
38899;SDS011;24660;43.238;26.576;2022-08-19T16:55:32;18.02;;;16.70;;
38899;SDS011;24660;43.238;26.576;2022-08-19T16:57:57;18.48;;;17.08;;
38899;SDS011;24660;43.238;26.576;2022-08-19T17:00:24;18.85;;;17.45;;
38899;SDS011;24660;43.238;26.576;2022-08-19T17:02:50;18.85;;;17.45;;
38899;SDS011;24660;43.238;26.576;2022-08-19T17:05:15;18.75;;;17.35;;